Adair Village, Oregon
Current Conditions -  °F | °C
As of 3:55 AM on Saturday 22 Nov 2014 (Local Time) from KCVO Reporting Station
Overcast Overcast  
Wind Chill: 10°   Ceiling: 6000
Heat Index: 10°   Visibility: 10mi
Dew Point:   Wind: 6mph
Humidity: 87%   Direction: 210°SSW
Pressure: 29.78"   Gusts: NA
Location:  44.6364°N, 123.28°W
Report Text: KCVO 221155Z AUTO 21005KT 10SM SCT046 BKN060 OVC070 10/08 A2978 RMK AO1 60004 70058 10130 20100 52020
Loading
Personal Weather Stations






























Interactive Weather Map New forecast layout! Learn more

10-Day Weather Forecast

Advertisements
Track Severe Weather on mobile